sensor_id;sensor_type;location;lat;lon;timestamp;P1;durP1;ratioP1;P2;durP2;ratioP2
56045;SDS011;41913;51.030;3.706;2024-01-11T00:00:32;11.65;;;7.63;;
56045;SDS011;41913;51.030;3.706;2024-01-11T00:02:58;11.48;;;8.27;;
56045;SDS011;41913;51.030;3.706;2024-01-11T00:05:24;8.32;;;7.00;;
56045;SDS011;41913;51.030;3.706;2024-01-11T00:07:50;8.50;;;7.60;;
56045;SDS011;41913;51.030;3.706;2024-01-11T00:10:16;9.00;;;7.63;;
56045;SDS011;41913;51.030;3.706;2024-01-11T00:12:41;9.88;;;7.93;;
56045;SDS011;41913;51.030;3.706;2024-01-11T00:15:07;8.68;;;7.63;;
56045;SDS011;41913;51.030;3.706;2024-01-11T00:17:33;10.00;;;7.85;;
56045;SDS011;41913;51.030;3.706;2024-01-11T00:20:00;11.10;;;8.60;;
56045;SDS011;41913;51.030;3.706;2024-01-11T00:22:26;11.88;;;7.43;;
56045;SDS011;41913;51.030;3.706;2024-01-11T00:24:52;9.05;;;7.70;;
56045;SDS011;41913;51.030;3.706;2024-01-11T00:27:18;11.25;;;8.00;;
56045;SDS011;41913;51.030;3.706;2024-01-11T00:29:44;8.35;;;7.07;;
56045;SDS011;41913;51.030;3.706;2024-01-11T00:32:09;9.32;;;7.70;;
56045;SDS011;41913;51.030;3.706;2024-01-11T00:34:35;10.80;;;8.32;;
56045;SDS011;41913;51.030;3.706;2024-01-11T00:37:02;11.50;;;8.10;;
56045;SDS011;41913;51.030;3.706;2024-01-11T00:39:27;13.27;;;8.82;;
56045;SDS011;41913;51.030;3.706;2024-01-11T00:41:54;9.48;;;7.70;;
56045;SDS011;41913;51.030;3.706;2024-01-11T00:44:20;10.20;;;7.82;;
56045;SDS011;41913;51.030;3.706;2024-01-11T00:46:46;9.57;;;8.30;;
56045;SDS011;41913;51.030;3.706;2024-01-11T00:49:12;12.07;;;9.07;;
56045;SDS011;41913;51.030;3.706;2024-01-11T00:51:37;14.52;;;9.20;;
56045;SDS011;41913;51.030;3.706;2024-01-11T00:54:03;11.35;;;8.43;;
56045;SDS011;41913;51.030;3.706;2024-01-11T00:56:29;11.95;;;8.52;;
56045;SDS011;41913;51.030;3.706;2024-01-11T00:58:55;10.57;;;8.00;;
56045;SDS011;41913;51.030;3.706;2024-01-11T01:01:21;11.43;;;7.78;;
56045;SDS011;41913;51.030;3.706;2024-01-11T01:03:46;11.70;;;7.68;;
56045;SDS011;41913;51.030;3.706;2024-01-11T01:06:12;10.65;;;8.25;;
56045;SDS011;41913;51.030;3.706;2024-01-11T01:08:38;12.98;;;8.35;;
56045;SDS011;41913;51.030;3.706;2024-01-11T01:11:04;9.68;;;7.70;;
56045;SDS011;41913;51.030;3.706;2024-01-11T01:13:30;9.35;;;7.82;;
56045;SDS011;41913;51.030;3.706;2024-01-11T01:15:56;8.63;;;7.65;;
56045;SDS011;41913;51.030;3.706;2024-01-11T01:18:21;11.52;;;8.38;;
56045;SDS011;41913;51.030;3.706;2024-01-11T01:20:47;11.57;;;8.00;;
56045;SDS011;41913;51.030;3.706;2024-01-11T01:23:13;10.80;;;7.55;;
56045;SDS011;41913;51.030;3.706;2024-01-11T01:25:39;10.32;;;8.02;;
56045;SDS011;41913;51.030;3.706;2024-01-11T01:28:04;9.95;;;8.18;;
56045;SDS011;41913;51.030;3.706;2024-01-11T01:30:30;11.68;;;8.73;;
56045;SDS011;41913;51.030;3.706;2024-01-11T01:32:56;8.98;;;7.78;;
56045;SDS011;41913;51.030;3.706;2024-01-11T01:35:22;11.07;;;8.13;;
56045;SDS011;41913;51.030;3.706;2024-01-11T01:37:47;12.13;;;8.63;;
56045;SDS011;41913;51.030;3.706;2024-01-11T01:40:14;8.98;;;7.32;;
56045;SDS011;41913;51.030;3.706;2024-01-11T01:42:43;10.43;;;8.25;;
56045;SDS011;41913;51.030;3.706;2024-01-11T01:45:09;11.50;;;8.20;;
56045;SDS011;41913;51.030;3.706;2024-01-11T01:47:36;9.45;;;8.20;;
56045;SDS011;41913;51.030;3.706;2024-01-11T01:50:05;13.07;;;8.05;;
56045;SDS011;41913;51.030;3.706;2024-01-11T01:52:33;11.00;;;8.13;;
56045;SDS011;41913;51.030;3.706;2024-01-11T01:55:01;8.65;;;7.68;;
56045;SDS011;41913;51.030;3.706;2024-01-11T01:57:28;10.90;;;8.60;;
56045;SDS011;41913;51.030;3.706;2024-01-11T01:59:55;12.73;;;8.38;;
56045;SDS011;41913;51.030;3.706;2024-01-11T02:02:22;10.50;;;7.85;;
56045;SDS011;41913;51.030;3.706;2024-01-11T02:04:48;9.55;;;8.02;;
56045;SDS011;41913;51.030;3.706;2024-01-11T02:07:14;9.60;;;6.93;;
56045;SDS011;41913;51.030;3.706;2024-01-11T02:09:40;11.48;;;8.30;;
56045;SDS011;41913;51.030;3.706;2024-01-11T02:12:07;9.52;;;8.35;;
56045;SDS011;41913;51.030;3.706;2024-01-11T02:14:37;9.88;;;7.93;;
56045;SDS011;41913;51.030;3.706;2024-01-11T02:17:03;12.40;;;9.40;;
56045;SDS011;41913;51.030;3.706;2024-01-11T02:19:29;7.60;;;6.88;;
56045;SDS011;41913;51.030;3.706;2024-01-11T02:21:55;7.88;;;7.07;;
56045;SDS011;41913;51.030;3.706;2024-01-11T02:24:27;9.18;;;7.30;;
56045;SDS011;41913;51.030;3.706;2024-01-11T02:29:26;9.57;;;7.32;;
56045;SDS011;41913;51.030;3.706;2024-01-11T02:31:53;9.43;;;8.00;;
56045;SDS011;41913;51.030;3.706;2024-01-11T02:34:23;11.07;;;8.45;;
56045;SDS011;41913;51.030;3.706;2024-01-11T02:36:51;9.48;;;7.53;;
56045;SDS011;41913;51.030;3.706;2024-01-11T02:39:18;11.85;;;7.65;;
56045;SDS011;41913;51.030;3.706;2024-01-11T02:41:46;8.82;;;7.15;;
56045;SDS011;41913;51.030;3.706;2024-01-11T02:44:15;9.25;;;7.30;;
56045;SDS011;41913;51.030;3.706;2024-01-11T02:46:40;12.43;;;8.38;;
56045;SDS011;41913;51.030;3.706;2024-01-11T02:49:06;10.02;;;8.00;;
56045;SDS011;41913;51.030;3.706;2024-01-11T02:51:32;10.80;;;7.55;;
56045;SDS011;41913;51.030;3.706;2024-01-11T02:53:58;11.60;;;8.48;;
56045;SDS011;41913;51.030;3.706;2024-01-11T02:56:24;8.68;;;7.15;;
56045;SDS011;41913;51.030;3.706;2024-01-11T02:58:50;10.60;;;8.43;;
56045;SDS011;41913;51.030;3.706;2024-01-11T03:01:17;11.13;;;8.00;;
56045;SDS011;41913;51.030;3.706;2024-01-11T03:03:42;13.20;;;8.48;;
56045;SDS011;41913;51.030;3.706;2024-01-11T03:06:09;10.65;;;8.55;;
56045;SDS011;41913;51.030;3.706;2024-01-11T03:08:35;9.30;;;7.95;;
56045;SDS011;41913;51.030;3.706;2024-01-11T03:11:01;10.63;;;7.95;;
56045;SDS011;41913;51.030;3.706;2024-01-11T03:13:27;10.75;;;7.93;;
56045;SDS011;41913;51.030;3.706;2024-01-11T03:15:53;11.52;;;8.23;;
56045;SDS011;41913;51.030;3.706;2024-01-11T03:18:18;10.55;;;7.38;;
56045;SDS011;41913;51.030;3.706;2024-01-11T03:20:44;9.45;;;7.65;;
56045;SDS011;41913;51.030;3.706;2024-01-11T03:23:10;10.43;;;7.95;;
56045;SDS011;41913;51.030;3.706;2024-01-11T03:25:36;11.38;;;8.57;;
56045;SDS011;41913;51.030;3.706;2024-01-11T03:28:02;12.25;;;8.05;;
56045;SDS011;41913;51.030;3.706;2024-01-11T03:30:28;11.40;;;8.52;;
56045;SDS011;41913;51.030;3.706;2024-01-11T03:32:53;11.55;;;7.72;;
56045;SDS011;41913;51.030;3.706;2024-01-11T03:35:19;10.48;;;8.30;;
56045;SDS011;41913;51.030;3.706;2024-01-11T03:37:46;10.82;;;7.88;;
56045;SDS011;41913;51.030;3.706;2024-01-11T03:40:12;10.82;;;8.55;;
56045;SDS011;41913;51.030;3.706;2024-01-11T03:42:37;11.48;;;8.65;;
56045;SDS011;41913;51.030;3.706;2024-01-11T03:45:03;11.65;;;8.38;;
56045;SDS011;41913;51.030;3.706;2024-01-11T03:47:30;10.60;;;8.93;;
56045;SDS011;41913;51.030;3.706;2024-01-11T03:49:56;10.50;;;7.63;;
56045;SDS011;41913;51.030;3.706;2024-01-11T03:52:22;10.93;;;7.70;;
56045;SDS011;41913;51.030;3.706;2024-01-11T03:54:48;9.13;;;8.02;;
56045;SDS011;41913;51.030;3.706;2024-01-11T03:57:13;10.80;;;8.13;;
56045;SDS011;41913;51.030;3.706;2024-01-11T03:59:40;10.07;;;7.72;;
56045;SDS011;41913;51.030;3.706;2024-01-11T04:02:06;11.45;;;8.15;;
56045;SDS011;41913;51.030;3.706;2024-01-11T04:04:32;9.43;;;7.38;;
56045;SDS011;41913;51.030;3.706;2024-01-11T04:06:58;10.98;;;7.68;;
56045;SDS011;41913;51.030;3.706;2024-01-11T04:09:24;10.85;;;8.10;;
56045;SDS011;41913;51.030;3.706;2024-01-11T04:11:50;9.93;;;7.90;;
56045;SDS011;41913;51.030;3.706;2024-01-11T04:14:16;10.05;;;7.93;;
56045;SDS011;41913;51.030;3.706;2024-01-11T04:16:42;11.02;;;8.63;;
56045;SDS011;41913;51.030;3.706;2024-01-11T04:19:08;10.18;;;7.95;;
56045;SDS011;41913;51.030;3.706;2024-01-11T04:21:34;10.77;;;8.63;;
56045;SDS011;41913;51.030;3.706;2024-01-11T04:24:00;11.13;;;8.38;;
56045;SDS011;41913;51.030;3.706;2024-01-11T04:26:26;12.32;;;8.52;;
56045;SDS011;41913;51.030;3.706;2024-01-11T04:28:52;13.30;;;9.18;;
56045;SDS011;41913;51.030;3.706;2024-01-11T04:31:18;13.52;;;8.88;;
56045;SDS011;41913;51.030;3.706;2024-01-11T04:33:45;14.45;;;9.23;;
56045;SDS011;41913;51.030;3.706;2024-01-11T04:36:11;10.73;;;9.02;;
56045;SDS011;41913;51.030;3.706;2024-01-11T04:38:38;11.00;;;8.32;;
56045;SDS011;41913;51.030;3.706;2024-01-11T04:41:09;12.00;;;8.98;;
56045;SDS011;41913;51.030;3.706;2024-01-11T04:43:39;10.18;;;7.85;;
56045;SDS011;41913;51.030;3.706;2024-01-11T04:49:01;11.55;;;9.00;;
56045;SDS011;41913;51.030;3.706;2024-01-11T04:51:28;11.43;;;9.25;;
56045;SDS011;41913;51.030;3.706;2024-01-11T04:53:53;9.60;;;8.60;;
56045;SDS011;41913;51.030;3.706;2024-01-11T04:56:19;14.20;;;9.35;;
56045;SDS011;41913;51.030;3.706;2024-01-11T04:58:45;12.35;;;8.32;;
56045;SDS011;41913;51.030;3.706;2024-01-11T05:01:13;11.95;;;8.88;;
56045;SDS011;41913;51.030;3.706;2024-01-11T05:03:42;11.63;;;8.25;;
56045;SDS011;41913;51.030;3.706;2024-01-11T05:06:14;13.00;;;9.73;;
56045;SDS011;41913;51.030;3.706;2024-01-11T05:08:46;12.27;;;8.90;;
56045;SDS011;41913;51.030;3.706;2024-01-11T05:11:16;11.48;;;8.57;;
56045;SDS011;41913;51.030;3.706;2024-01-11T05:13:42;13.73;;;9.05;;
56045;SDS011;41913;51.030;3.706;2024-01-11T05:18:42;10.90;;;8.80;;
56045;SDS011;41913;51.030;3.706;2024-01-11T05:21:08;9.80;;;8.40;;
56045;SDS011;41913;51.030;3.706;2024-01-11T05:23:34;13.18;;;9.07;;
56045;SDS011;41913;51.030;3.706;2024-01-11T05:26:00;11.40;;;8.38;;
56045;SDS011;41913;51.030;3.706;2024-01-11T05:28:27;9.68;;;8.05;;
56045;SDS011;41913;51.030;3.706;2024-01-11T05:30:53;11.48;;;8.98;;
56045;SDS011;41913;51.030;3.706;2024-01-11T05:33:20;11.85;;;8.20;;
56045;SDS011;41913;51.030;3.706;2024-01-11T05:35:45;10.75;;;8.48;;
56045;SDS011;41913;51.030;3.706;2024-01-11T05:38:11;12.00;;;9.00;;
56045;SDS011;41913;51.030;3.706;2024-01-11T05:40:37;11.57;;;8.88;;
56045;SDS011;41913;51.030;3.706;2024-01-11T05:43:03;12.35;;;8.60;;
56045;SDS011;41913;51.030;3.706;2024-01-11T05:45:29;12.38;;;8.63;;
56045;SDS011;41913;51.030;3.706;2024-01-11T05:47:54;11.98;;;8.55;;
56045;SDS011;41913;51.030;3.706;2024-01-11T05:50:20;10.93;;;8.13;;
56045;SDS011;41913;51.030;3.706;2024-01-11T05:52:46;11.57;;;8.75;;
56045;SDS011;41913;51.030;3.706;2024-01-11T05:55:12;12.27;;;9.65;;
56045;SDS011;41913;51.030;3.706;2024-01-11T05:57:37;11.98;;;9.65;;
56045;SDS011;41913;51.030;3.706;2024-01-11T06:00:04;9.70;;;8.25;;
56045;SDS011;41913;51.030;3.706;2024-01-11T06:02:30;9.10;;;7.90;;
56045;SDS011;41913;51.030;3.706;2024-01-11T06:04:56;13.90;;;8.90;;
56045;SDS011;41913;51.030;3.706;2024-01-11T06:07:22;10.13;;;8.23;;
56045;SDS011;41913;51.030;3.706;2024-01-11T06:09:48;9.50;;;7.68;;
56045;SDS011;41913;51.030;3.706;2024-01-11T06:12:14;8.23;;;7.38;;
56045;SDS011;41913;51.030;3.706;2024-01-11T06:14:40;13.40;;;8.73;;
56045;SDS011;41913;51.030;3.706;2024-01-11T06:17:06;13.98;;;9.60;;
56045;SDS011;41913;51.030;3.706;2024-01-11T06:19:35;10.55;;;7.72;;
56045;SDS011;41913;51.030;3.706;2024-01-11T06:22:02;11.15;;;7.53;;
56045;SDS011;41913;51.030;3.706;2024-01-11T06:24:28;12.13;;;8.80;;
56045;SDS011;41913;51.030;3.706;2024-01-11T06:26:54;11.38;;;8.27;;
56045;SDS011;41913;51.030;3.706;2024-01-11T06:29:20;12.00;;;8.38;;
56045;SDS011;41913;51.030;3.706;2024-01-11T06:31:45;9.77;;;7.72;;
56045;SDS011;41913;51.030;3.706;2024-01-11T06:34:11;9.23;;;7.60;;
56045;SDS011;41913;51.030;3.706;2024-01-11T06:36:37;10.57;;;7.65;;
56045;SDS011;41913;51.030;3.706;2024-01-11T06:39:03;19.73;;;8.85;;
56045;SDS011;41913;51.030;3.706;2024-01-11T06:41:29;12.70;;;7.80;;
56045;SDS011;41913;51.030;3.706;2024-01-11T06:43:55;10.45;;;7.28;;
56045;SDS011;41913;51.030;3.706;2024-01-11T06:46:21;17.05;;;7.97;;
56045;SDS011;41913;51.030;3.706;2024-01-11T06:48:49;21.05;;;7.55;;
56045;SDS011;41913;51.030;3.706;2024-01-11T06:51:16;40.13;;;9.05;;
56045;SDS011;41913;51.030;3.706;2024-01-11T06:53:46;22.88;;;8.55;;
56045;SDS011;41913;51.030;3.706;2024-01-11T06:56:15;27.40;;;7.97;;
56045;SDS011;41913;51.030;3.706;2024-01-11T06:58:43;50.10;;;9.55;;
56045;SDS011;41913;51.030;3.706;2024-01-11T07:01:09;36.05;;;9.27;;
56045;SDS011;41913;51.030;3.706;2024-01-11T07:03:36;19.20;;;8.27;;
56045;SDS011;41913;51.030;3.706;2024-01-11T07:06:02;25.45;;;8.93;;
56045;SDS011;41913;51.030;3.706;2024-01-11T07:08:29;21.65;;;8.63;;
56045;SDS011;41913;51.030;3.706;2024-01-11T07:10:55;15.48;;;7.97;;
56045;SDS011;41913;51.030;3.706;2024-01-11T07:13:22;16.92;;;7.72;;
56045;SDS011;41913;51.030;3.706;2024-01-11T07:15:47;18.08;;;7.57;;
56045;SDS011;41913;51.030;3.706;2024-01-11T07:18:14;16.00;;;6.63;;
56045;SDS011;41913;51.030;3.706;2024-01-11T07:20:40;16.20;;;8.23;;
56045;SDS011;41913;51.030;3.706;2024-01-11T07:23:06;20.42;;;8.45;;
56045;SDS011;41913;51.030;3.706;2024-01-11T07:25:32;18.83;;;8.02;;
56045;SDS011;41913;51.030;3.706;2024-01-11T07:27:59;14.02;;;7.70;;
56045;SDS011;41913;51.030;3.706;2024-01-11T07:30:25;15.15;;;8.75;;
56045;SDS011;41913;51.030;3.706;2024-01-11T07:32:51;12.52;;;8.27;;
56045;SDS011;41913;51.030;3.706;2024-01-11T07:35:17;17.02;;;8.43;;
56045;SDS011;41913;51.030;3.706;2024-01-11T07:37:43;16.15;;;7.80;;
56045;SDS011;41913;51.030;3.706;2024-01-11T07:40:09;20.33;;;7.75;;
56045;SDS011;41913;51.030;3.706;2024-01-11T07:42:39;15.10;;;8.82;;
56045;SDS011;41913;51.030;3.706;2024-01-11T07:45:06;15.90;;;7.95;;
56045;SDS011;41913;51.030;3.706;2024-01-11T07:47:32;18.63;;;8.35;;
56045;SDS011;41913;51.030;3.706;2024-01-11T07:49:58;14.98;;;7.10;;
56045;SDS011;41913;51.030;3.706;2024-01-11T07:52:25;19.20;;;8.27;;
56045;SDS011;41913;51.030;3.706;2024-01-11T07:54:50;11.57;;;7.78;;
56045;SDS011;41913;51.030;3.706;2024-01-11T07:57:16;10.38;;;7.88;;
56045;SDS011;41913;51.030;3.706;2024-01-11T07:59:42;12.48;;;8.57;;
56045;SDS011;41913;51.030;3.706;2024-01-11T08:02:08;11.80;;;7.68;;
56045;SDS011;41913;51.030;3.706;2024-01-11T08:04:34;14.85;;;8.32;;
56045;SDS011;41913;51.030;3.706;2024-01-11T08:06:59;15.43;;;8.00;;
56045;SDS011;41913;51.030;3.706;2024-01-11T08:09:27;12.13;;;8.45;;
56045;SDS011;41913;51.030;3.706;2024-01-11T08:11:53;13.68;;;8.30;;
56045;SDS011;41913;51.030;3.706;2024-01-11T08:14:22;13.07;;;9.20;;
56045;SDS011;41913;51.030;3.706;2024-01-11T08:16:49;13.75;;;9.10;;
56045;SDS011;41913;51.030;3.706;2024-01-11T08:19:15;13.48;;;9.45;;
56045;SDS011;41913;51.030;3.706;2024-01-11T08:21:41;12.40;;;7.95;;
56045;SDS011;41913;51.030;3.706;2024-01-11T08:24:07;13.65;;;8.90;;
56045;SDS011;41913;51.030;3.706;2024-01-11T08:26:33;13.20;;;9.05;;
56045;SDS011;41913;51.030;3.706;2024-01-11T08:28:59;11.35;;;8.18;;
56045;SDS011;41913;51.030;3.706;2024-01-11T08:31:26;13.27;;;8.07;;
56045;SDS011;41913;51.030;3.706;2024-01-11T08:33:53;14.15;;;9.07;;
56045;SDS011;41913;51.030;3.706;2024-01-11T08:36:18;12.48;;;8.43;;
56045;SDS011;41913;51.030;3.706;2024-01-11T08:38:45;12.00;;;8.55;;
56045;SDS011;41913;51.030;3.706;2024-01-11T08:41:11;14.80;;;9.13;;
56045;SDS011;41913;51.030;3.706;2024-01-11T08:43:37;14.13;;;8.20;;
56045;SDS011;41913;51.030;3.706;2024-01-11T08:46:04;16.88;;;9.88;;
56045;SDS011;41913;51.030;3.706;2024-01-11T08:48:30;17.33;;;8.75;;
56045;SDS011;41913;51.030;3.706;2024-01-11T08:50:57;11.98;;;8.40;;
56045;SDS011;41913;51.030;3.706;2024-01-11T08:53:22;13.07;;;8.95;;
56045;SDS011;41913;51.030;3.706;2024-01-11T08:55:48;13.68;;;8.13;;
56045;SDS011;41913;51.030;3.706;2024-01-11T08:58:15;14.27;;;8.70;;
56045;SDS011;41913;51.030;3.706;2024-01-11T09:00:41;13.32;;;7.85;;
56045;SDS011;41913;51.030;3.706;2024-01-11T09:03:07;12.60;;;8.80;;
56045;SDS011;41913;51.030;3.706;2024-01-11T09:05:33;9.57;;;8.18;;
56045;SDS011;41913;51.030;3.706;2024-01-11T09:08:01;13.10;;;7.70;;
56045;SDS011;41913;51.030;3.706;2024-01-11T09:10:27;10.63;;;7.88;;
56045;SDS011;41913;51.030;3.706;2024-01-11T09:12:53;13.73;;;7.95;;
56045;SDS011;41913;51.030;3.706;2024-01-11T09:15:19;9.82;;;8.63;;
56045;SDS011;41913;51.030;3.706;2024-01-11T09:17:45;13.68;;;9.52;;
56045;SDS011;41913;51.030;3.706;2024-01-11T09:20:11;9.35;;;8.23;;
56045;SDS011;41913;51.030;3.706;2024-01-11T09:22:39;13.63;;;8.75;;
56045;SDS011;41913;51.030;3.706;2024-01-11T09:25:05;12.13;;;8.98;;
56045;SDS011;41913;51.030;3.706;2024-01-11T09:27:32;12.48;;;8.13;;
56045;SDS011;41913;51.030;3.706;2024-01-11T09:29:57;9.73;;;8.65;;
56045;SDS011;41913;51.030;3.706;2024-01-11T09:32:24;11.63;;;8.60;;
56045;SDS011;41913;51.030;3.706;2024-01-11T09:34:50;13.20;;;8.73;;
56045;SDS011;41913;51.030;3.706;2024-01-11T09:37:16;10.55;;;8.50;;
56045;SDS011;41913;51.030;3.706;2024-01-11T09:39:42;10.52;;;8.50;;
56045;SDS011;41913;51.030;3.706;2024-01-11T09:42:08;13.32;;;8.80;;
56045;SDS011;41913;51.030;3.706;2024-01-11T09:44:35;9.93;;;8.00;;
56045;SDS011;41913;51.030;3.706;2024-01-11T09:47:05;8.05;;;7.05;;
56045;SDS011;41913;51.030;3.706;2024-01-11T09:49:33;10.98;;;8.38;;
56045;SDS011;41913;51.030;3.706;2024-01-11T09:52:03;14.77;;;9.20;;
56045;SDS011;41913;51.030;3.706;2024-01-11T09:54:30;14.35;;;9.02;;
56045;SDS011;41913;51.030;3.706;2024-01-11T09:56:57;12.23;;;9.68;;
56045;SDS011;41913;51.030;3.706;2024-01-11T09:59:25;11.82;;;8.98;;
56045;SDS011;41913;51.030;3.706;2024-01-11T10:01:52;9.35;;;8.35;;
56045;SDS011;41913;51.030;3.706;2024-01-11T10:04:18;11.88;;;8.32;;
56045;SDS011;41913;51.030;3.706;2024-01-11T10:06:44;13.85;;;9.48;;
56045;SDS011;41913;51.030;3.706;2024-01-11T10:09:10;19.58;;;9.38;;
56045;SDS011;41913;51.030;3.706;2024-01-11T10:11:36;10.80;;;8.27;;
56045;SDS011;41913;51.030;3.706;2024-01-11T10:14:03;15.35;;;9.85;;
56045;SDS011;41913;51.030;3.706;2024-01-11T10:16:30;10.98;;;9.18;;
56045;SDS011;41913;51.030;3.706;2024-01-11T10:18:57;25.55;;;9.75;;
56045;SDS011;41913;51.030;3.706;2024-01-11T10:21:24;13.15;;;9.52;;
56045;SDS011;41913;51.030;3.706;2024-01-11T10:23:52;13.85;;;9.75;;
56045;SDS011;41913;51.030;3.706;2024-01-11T10:26:18;10.95;;;9.25;;
56045;SDS011;41913;51.030;3.706;2024-01-11T10:28:46;13.32;;;9.48;;
56045;SDS011;41913;51.030;3.706;2024-01-11T10:31:12;12.05;;;9.23;;
56045;SDS011;41913;51.030;3.706;2024-01-11T10:33:43;15.13;;;8.75;;
56045;SDS011;41913;51.030;3.706;2024-01-11T10:36:12;14.40;;;9.30;;
56045;SDS011;41913;51.030;3.706;2024-01-11T10:38:39;12.05;;;9.18;;
56045;SDS011;41913;51.030;3.706;2024-01-11T10:41:05;12.85;;;9.63;;
56045;SDS011;41913;51.030;3.706;2024-01-11T10:43:32;15.35;;;10.02;;
56045;SDS011;41913;51.030;3.706;2024-01-11T10:46:01;18.38;;;9.95;;
56045;SDS011;41913;51.030;3.706;2024-01-11T10:48:30;15.48;;;10.00;;
56045;SDS011;41913;51.030;3.706;2024-01-11T10:51:00;30.20;;;12.88;;
56045;SDS011;41913;51.030;3.706;2024-01-11T10:53:46;19.23;;;9.52;;
56045;SDS011;41913;51.030;3.706;2024-01-11T10:56:15;14.35;;;9.00;;
56045;SDS011;41913;51.030;3.706;2024-01-11T10:58:42;12.60;;;8.20;;
56045;SDS011;41913;51.030;3.706;2024-01-11T11:01:09;13.75;;;9.60;;
56045;SDS011;41913;51.030;3.706;2024-01-11T11:03:37;12.43;;;9.95;;
56045;SDS011;41913;51.030;3.706;2024-01-11T11:06:06;13.45;;;9.65;;
56045;SDS011;41913;51.030;3.706;2024-01-11T11:08:33;12.70;;;9.10;;
56045;SDS011;41913;51.030;3.706;2024-01-11T11:11:02;12.10;;;9.65;;
56045;SDS011;41913;51.030;3.706;2024-01-11T11:13:31;13.27;;;9.40;;
56045;SDS011;41913;51.030;3.706;2024-01-11T11:15:57;21.33;;;9.73;;
56045;SDS011;41913;51.030;3.706;2024-01-11T11:18:24;16.33;;;9.70;;
56045;SDS011;41913;51.030;3.706;2024-01-11T11:20:50;10.63;;;8.70;;
56045;SDS011;41913;51.030;3.706;2024-01-11T11:23:17;15.48;;;10.18;;
56045;SDS011;41913;51.030;3.706;2024-01-11T11:25:47;13.45;;;10.23;;
56045;SDS011;41913;51.030;3.706;2024-01-11T11:28:14;18.98;;;9.65;;
56045;SDS011;41913;51.030;3.706;2024-01-11T11:30:42;15.30;;;10.63;;
56045;SDS011;41913;51.030;3.706;2024-01-11T11:35:36;15.30;;;9.52;;
56045;SDS011;41913;51.030;3.706;2024-01-11T11:38:02;12.77;;;9.40;;
56045;SDS011;41913;51.030;3.706;2024-01-11T11:40:32;18.58;;;9.80;;
56045;SDS011;41913;51.030;3.706;2024-01-11T11:43:10;15.73;;;9.82;;
56045;SDS011;41913;51.030;3.706;2024-01-11T11:45:35;13.05;;;9.00;;
56045;SDS011;41913;51.030;3.706;2024-01-11T11:48:43;17.30;;;10.10;;
56045;SDS011;41913;51.030;3.706;2024-01-11T11:51:14;14.13;;;9.38;;
56045;SDS011;41913;51.030;3.706;2024-01-11T11:53:41;12.45;;;9.35;;
56045;SDS011;41913;51.030;3.706;2024-01-11T11:56:08;10.88;;;7.85;;
56045;SDS011;41913;51.030;3.706;2024-01-11T11:58:35;11.80;;;8.77;;
56045;SDS011;41913;51.030;3.706;2024-01-11T12:01:02;13.07;;;9.63;;
56045;SDS011;41913;51.030;3.706;2024-01-11T12:03:40;12.43;;;8.40;;
56045;SDS011;41913;51.030;3.706;2024-01-11T12:06:08;11.63;;;8.48;;
56045;SDS011;41913;51.030;3.706;2024-01-11T12:08:36;12.38;;;9.02;;
56045;SDS011;41913;51.030;3.706;2024-01-11T12:11:02;13.90;;;9.40;;
56045;SDS011;41913;51.030;3.706;2024-01-11T12:13:28;12.05;;;8.82;;
56045;SDS011;41913;51.030;3.706;2024-01-11T12:15:56;11.52;;;8.82;;
56045;SDS011;41913;51.030;3.706;2024-01-11T12:18:22;11.27;;;8.63;;
56045;SDS011;41913;51.030;3.706;2024-01-11T12:20:48;12.90;;;9.00;;
56045;SDS011;41913;51.030;3.706;2024-01-11T12:23:14;12.18;;;9.00;;
56045;SDS011;41913;51.030;3.706;2024-01-11T12:25:40;12.98;;;8.18;;
56045;SDS011;41913;51.030;3.706;2024-01-11T12:28:07;11.20;;;7.45;;
56045;SDS011;41913;51.030;3.706;2024-01-11T12:30:34;11.98;;;8.50;;
56045;SDS011;41913;51.030;3.706;2024-01-11T12:32:59;12.27;;;8.63;;
56045;SDS011;41913;51.030;3.706;2024-01-11T12:35:27;11.57;;;8.25;;
56045;SDS011;41913;51.030;3.706;2024-01-11T12:37:53;14.38;;;9.15;;
56045;SDS011;41913;51.030;3.706;2024-01-11T12:42:52;9.20;;;7.07;;
56045;SDS011;41913;51.030;3.706;2024-01-11T12:45:19;11.57;;;7.63;;
56045;SDS011;41913;51.030;3.706;2024-01-11T12:47:45;10.02;;;7.70;;
56045;SDS011;41913;51.030;3.706;2024-01-11T12:50:11;8.75;;;7.75;;
56045;SDS011;41913;51.030;3.706;2024-01-11T12:52:37;13.20;;;8.93;;
56045;SDS011;41913;51.030;3.706;2024-01-11T12:55:04;8.57;;;7.70;;
56045;SDS011;41913;51.030;3.706;2024-01-11T12:57:35;13.50;;;7.93;;
56045;SDS011;41913;51.030;3.706;2024-01-11T13:00:10;11.63;;;8.15;;
56045;SDS011;41913;51.030;3.706;2024-01-11T13:02:38;10.23;;;8.05;;
56045;SDS011;41913;51.030;3.706;2024-01-11T13:05:04;10.35;;;7.68;;
56045;SDS011;41913;51.030;3.706;2024-01-11T13:07:32;10.55;;;7.65;;
56045;SDS011;41913;51.030;3.706;2024-01-11T13:10:01;10.85;;;7.90;;
56045;SDS011;41913;51.030;3.706;2024-01-11T13:12:29;10.93;;;7.80;;
56045;SDS011;41913;51.030;3.706;2024-01-11T13:14:55;10.77;;;8.30;;
56045;SDS011;41913;51.030;3.706;2024-01-11T13:17:21;11.35;;;7.60;;
56045;SDS011;41913;51.030;3.706;2024-01-11T13:19:47;8.32;;;7.50;;
56045;SDS011;41913;51.030;3.706;2024-01-11T13:22:13;10.38;;;7.32;;
56045;SDS011;41913;51.030;3.706;2024-01-11T13:24:38;7.43;;;6.28;;
56045;SDS011;41913;51.030;3.706;2024-01-11T13:27:04;8.30;;;6.65;;
56045;SDS011;41913;51.030;3.706;2024-01-11T13:29:31;8.65;;;7.18;;
56045;SDS011;41913;51.030;3.706;2024-01-11T13:31:57;9.30;;;6.65;;
56045;SDS011;41913;51.030;3.706;2024-01-11T13:34:22;7.75;;;6.95;;
56045;SDS011;41913;51.030;3.706;2024-01-11T13:36:48;8.35;;;7.03;;
56045;SDS011;41913;51.030;3.706;2024-01-11T13:39:16;9.07;;;6.70;;
56045;SDS011;41913;51.030;3.706;2024-01-11T13:41:43;10.45;;;6.90;;
56045;SDS011;41913;51.030;3.706;2024-01-11T13:44:09;10.65;;;7.80;;
56045;SDS011;41913;51.030;3.706;2024-01-11T13:46:36;7.75;;;6.55;;
56045;SDS011;41913;51.030;3.706;2024-01-11T13:49:02;6.78;;;6.15;;
56045;SDS011;41913;51.030;3.706;2024-01-11T13:51:31;7.95;;;6.80;;
56045;SDS011;41913;51.030;3.706;2024-01-11T13:53:57;8.43;;;6.25;;
56045;SDS011;41913;51.030;3.706;2024-01-11T13:56:26;9.15;;;6.60;;
56045;SDS011;41913;51.030;3.706;2024-01-11T13:58:52;9.52;;;6.95;;
56045;SDS011;41913;51.030;3.706;2024-01-11T14:01:18;7.50;;;6.10;;
56045;SDS011;41913;51.030;3.706;2024-01-11T14:03:44;8.52;;;6.85;;
56045;SDS011;41913;51.030;3.706;2024-01-11T14:06:10;10.25;;;6.75;;
56045;SDS011;41913;51.030;3.706;2024-01-11T14:08:35;8.65;;;6.47;;
56045;SDS011;41913;51.030;3.706;2024-01-11T14:11:01;7.65;;;6.13;;
56045;SDS011;41913;51.030;3.706;2024-01-11T14:13:27;8.05;;;6.07;;
56045;SDS011;41913;51.030;3.706;2024-01-11T14:15:54;6.65;;;5.72;;
56045;SDS011;41913;51.030;3.706;2024-01-11T14:18:20;7.75;;;6.07;;
56045;SDS011;41913;51.030;3.706;2024-01-11T14:20:49;9.13;;;6.70;;
56045;SDS011;41913;51.030;3.706;2024-01-11T14:23:15;7.95;;;6.45;;
56045;SDS011;41913;51.030;3.706;2024-01-11T14:25:41;9.05;;;7.25;;
56045;SDS011;41913;51.030;3.706;2024-01-11T14:28:07;9.73;;;6.78;;
56045;SDS011;41913;51.030;3.706;2024-01-11T14:30:33;7.43;;;6.65;;
56045;SDS011;41913;51.030;3.706;2024-01-11T14:32:59;6.75;;;6.03;;
56045;SDS011;41913;51.030;3.706;2024-01-11T14:35:25;8.23;;;6.85;;
56045;SDS011;41913;51.030;3.706;2024-01-11T14:37:51;7.22;;;5.97;;
56045;SDS011;41913;51.030;3.706;2024-01-11T14:40:17;7.50;;;6.40;;
56045;SDS011;41913;51.030;3.706;2024-01-11T14:42:44;6.53;;;5.43;;
56045;SDS011;41913;51.030;3.706;2024-01-11T14:45:09;7.60;;;6.65;;
56045;SDS011;41913;51.030;3.706;2024-01-11T14:47:37;6.30;;;5.70;;